createdAt,value
2022-12-09T00:01:06.837Z,19.42
2022-12-09T00:03:34.128Z,21.77
2022-12-09T00:06:18.742Z,20.95
2022-12-09T00:08:45.854Z,20.92
2022-12-09T00:11:13.039Z,18.58
2022-12-09T00:13:40.225Z,18.00
2022-12-09T00:16:12.010Z,16.98
2022-12-09T00:18:39.661Z,20.42
2022-12-09T00:21:29.636Z,21.20
2022-12-09T00:23:58.147Z,17.60
2022-12-09T00:26:26.677Z,18.02
2022-12-09T00:28:54.669Z,18.45
2022-12-09T00:31:24.685Z,16.85
2022-12-09T00:33:52.768Z,17.73
2022-12-09T00:36:22.034Z,14.98
2022-12-09T00:38:48.861Z,15.38
2022-12-09T00:41:17.070Z,13.85
2022-12-09T00:43:44.289Z,13.77
2022-12-09T00:46:12.776Z,14.63
2022-12-09T00:48:45.625Z,14.02
2022-12-09T00:51:18.563Z,16.73
2022-12-09T00:53:45.897Z,15.23
2022-12-09T00:56:12.546Z,13.77
2022-12-09T00:58:39.407Z,14.43
2022-12-09T01:01:06.349Z,14.70
2022-12-09T01:03:33.662Z,14.57
2022-12-09T01:06:00.827Z,13.38
2022-12-09T01:08:27.556Z,13.48
2022-12-09T01:10:54.527Z,13.75
2022-12-09T01:13:21.184Z,13.65
2022-12-09T01:15:48.198Z,13.13
2022-12-09T01:18:15.065Z,12.75
2022-12-09T01:20:41.697Z,15.93
2022-12-09T01:23:08.582Z,12.75
2022-12-09T01:25:35.407Z,13.43
2022-12-09T01:28:02.232Z,13.45
2022-12-09T01:30:28.963Z,12.85
2022-12-09T01:32:55.705Z,12.45
2022-12-09T01:35:22.482Z,11.82
2022-12-09T01:37:49.134Z,13.20
2022-12-09T01:40:18.578Z,12.23
2022-12-09T01:42:46.152Z,11.85
2022-12-09T01:45:40.761Z,12.07
2022-12-09T01:48:15.935Z,11.18
2022-12-09T01:53:16.166Z,12.10
2022-12-09T01:55:43.100Z,11.60
2022-12-09T01:58:10.443Z,10.18
2022-12-09T02:00:37.129Z,11.25
2022-12-09T02:03:04.041Z,9.95
2022-12-09T02:05:31.107Z,8.20
2022-12-09T02:07:57.883Z,8.35
2022-12-09T02:10:25.225Z,8.40
2022-12-09T02:12:58.084Z,8.05
2022-12-09T02:15:37.556Z,7.25
2022-12-09T02:18:20.753Z,8.07
2022-12-09T02:20:53.525Z,8.52
2022-12-09T02:23:56.051Z,9.30
2022-12-09T02:26:35.877Z,8.35
2022-12-09T02:29:27.055Z,9.38
2022-12-09T02:32:15.608Z,9.18
2022-12-09T02:35:06.218Z,10.02
2022-12-09T02:37:35.631Z,9.00
2022-12-09T02:40:19.618Z,10.10
2022-12-09T02:42:48.685Z,8.98
2022-12-09T02:45:18.300Z,8.68
2022-12-09T02:47:50.376Z,10.77
2022-12-09T02:50:22.427Z,9.00
2022-12-09T02:52:52.758Z,9.75
2022-12-09T02:55:21.718Z,9.93
2022-12-09T02:57:55.166Z,10.83
2022-12-09T03:02:59.731Z,10.48
2022-12-09T03:06:04.899Z,11.50
2022-12-09T03:08:39.937Z,10.25
2022-12-09T03:11:10.635Z,10.70
2022-12-09T03:14:03.917Z,9.43
2022-12-09T03:16:42.557Z,10.10
2022-12-09T03:19:30.658Z,9.73
2022-12-09T03:22:01.182Z,8.80
2022-12-09T03:24:33.405Z,9.50
2022-12-09T03:27:07.003Z,8.95
2022-12-09T03:29:37.637Z,8.70
2022-12-09T03:32:05.252Z,8.80
2022-12-09T03:34:38.034Z,9.70
2022-12-09T03:37:06.652Z,8.63
2022-12-09T03:39:37.627Z,9.85
2022-12-09T03:42:15.900Z,9.43
2022-12-09T03:44:52.352Z,9.75
2022-12-09T03:47:19.615Z,9.98
2022-12-09T03:49:46.463Z,9.13
2022-12-09T03:52:37.381Z,9.40
2022-12-09T03:55:23.798Z,9.90
2022-12-09T03:57:55.163Z,9.38
2022-12-09T04:00:22.045Z,9.27
2022-12-09T04:02:49.869Z,10.23
2022-12-09T04:05:16.955Z,10.93
2022-12-09T04:07:44.111Z,10.15
2022-12-09T04:10:12.384Z,9.60
2022-12-09T04:12:42.262Z,10.23
2022-12-09T04:15:11.725Z,8.82
2022-12-09T04:17:38.551Z,8.63
2022-12-09T04:20:06.905Z,9.73
2022-12-09T04:22:34.329Z,8.27
2022-12-09T04:25:00.990Z,9.23
2022-12-09T04:27:27.634Z,9.82
2022-12-09T04:29:54.201Z,8.68
2022-12-09T04:32:21.108Z,8.52
2022-12-09T04:34:47.838Z,9.52
2022-12-09T04:37:15.394Z,9.00
2022-12-09T04:39:42.128Z,8.32
2022-12-09T04:42:08.898Z,8.98
2022-12-09T04:44:36.005Z,9.88
2022-12-09T04:47:02.866Z,8.90
2022-12-09T04:49:31.659Z,9.85
2022-12-09T04:51:58.850Z,9.02
2022-12-09T04:54:25.570Z,8.88
2022-12-09T04:56:52.162Z,8.70
2022-12-09T04:59:18.835Z,9.27
2022-12-09T05:01:45.828Z,8.52
2022-12-09T05:04:13.974Z,8.88
2022-12-09T05:06:40.929Z,8.07
2022-12-09T05:09:12.440Z,7.88
2022-12-09T05:11:41.009Z,7.93
2022-12-09T05:14:07.869Z,7.72
2022-12-09T05:16:35.082Z,6.85
2022-12-09T05:19:02.472Z,7.70
2022-12-09T05:21:30.079Z,6.97
2022-12-09T05:23:57.019Z,6.60
2022-12-09T05:26:24.430Z,7.25
2022-12-09T05:28:51.870Z,6.57
2022-12-09T05:31:22.032Z,6.10
2022-12-09T05:33:50.594Z,7.03
2022-12-09T05:36:20.964Z,7.10
2022-12-09T05:38:48.948Z,6.65
2022-12-09T05:41:17.092Z,6.07
2022-12-09T05:43:44.150Z,5.93
2022-12-09T05:46:12.989Z,5.32
2022-12-09T05:48:40.667Z,5.25
2022-12-09T05:51:16.782Z,5.50
2022-12-09T05:53:44.493Z,5.95
2022-12-09T05:56:16.070Z,5.70
2022-12-09T05:58:43.247Z,4.20
2022-12-09T06:01:10.172Z,5.63
2022-12-09T06:03:37.951Z,4.80
2022-12-09T06:06:13.748Z,5.88
2022-12-09T06:08:42.199Z,4.88
2022-12-09T06:11:21.532Z,5.95
2022-12-09T06:13:49.850Z,4.85
2022-12-09T06:16:19.728Z,4.85
2022-12-09T06:18:47.611Z,4.90
2022-12-09T06:21:17.030Z,5.18
2022-12-09T06:23:44.233Z,5.65
2022-12-09T06:26:26.403Z,6.15
2022-12-09T06:31:22.078Z,6.32
2022-12-09T06:33:58.320Z,5.95
2022-12-09T06:36:27.271Z,5.88
2022-12-09T06:38:54.738Z,5.40
2022-12-09T06:41:21.861Z,6.40
2022-12-09T06:43:48.857Z,6.13
2022-12-09T06:46:23.728Z,5.40
2022-12-09T06:48:51.214Z,6.38
2022-12-09T06:51:18.541Z,6.43
2022-12-09T06:53:46.158Z,5.95
2022-12-09T06:56:13.907Z,5.95
2022-12-09T06:58:43.143Z,6.45
2022-12-09T07:01:14.049Z,8.45
2022-12-09T07:03:43.065Z,7.30
2022-12-09T07:06:21.086Z,7.25
2022-12-09T07:08:48.601Z,8.27
2022-12-09T07:11:16.770Z,8.00
2022-12-09T07:13:43.678Z,7.82
2022-12-09T07:16:10.454Z,8.60
2022-12-09T07:18:37.408Z,8.20
2022-12-09T07:21:15.754Z,8.30
2022-12-09T07:23:43.533Z,8.32
2022-12-09T07:26:10.753Z,8.05
2022-12-09T07:28:39.368Z,9.10
2022-12-09T07:31:06.505Z,9.82
2022-12-09T07:33:34.511Z,9.43
2022-12-09T07:36:01.243Z,9.60
2022-12-09T07:38:27.995Z,9.45
2022-12-09T07:41:05.563Z,10.35
2022-12-09T07:43:36.215Z,11.20
2022-12-09T07:46:07.624Z,9.88
2022-12-09T07:48:35.347Z,9.70
2022-12-09T07:51:03.579Z,8.88
2022-12-09T07:53:30.907Z,9.70
2022-12-09T07:56:03.171Z,9.60
2022-12-09T07:58:30.514Z,8.77
2022-12-09T08:00:57.326Z,9.52
2022-12-09T08:03:24.152Z,8.80
2022-12-09T08:05:53.040Z,9.35
2022-12-09T08:08:20.950Z,9.60
2022-12-09T08:10:48.457Z,8.40
2022-12-09T08:13:15.467Z,9.32
2022-12-09T08:15:42.219Z,8.98
2022-12-09T08:18:10.376Z,10.40
2022-12-09T08:20:37.249Z,9.25
2022-12-09T08:23:05.662Z,9.27
2022-12-09T08:25:33.149Z,10.15
2022-12-09T08:28:00.289Z,9.75
2022-12-09T08:30:27.538Z,8.70
2022-12-09T08:32:54.781Z,9.27
2022-12-09T08:35:21.753Z,11.07
2022-12-09T08:37:48.521Z,9.43
2022-12-09T08:40:15.650Z,11.35
2022-12-09T08:42:42.724Z,9.65
2022-12-09T08:45:10.015Z,11.30
2022-12-09T08:47:37.194Z,9.43
2022-12-09T08:50:05.357Z,9.50
2022-12-09T08:52:38.721Z,10.13
2022-12-09T08:55:07.917Z,10.77
2022-12-09T08:57:34.623Z,11.32
2022-12-09T09:00:02.362Z,9.80
2022-12-09T09:02:29.250Z,8.77
2022-12-09T09:04:57.555Z,9.25
2022-12-09T09:07:24.763Z,11.23
2022-12-09T09:09:52.216Z,10.63
2022-12-09T09:12:19.150Z,10.35
2022-12-09T09:14:47.017Z,9.95
2022-12-09T09:17:14.362Z,11.07
2022-12-09T09:19:41.139Z,10.77
2022-12-09T09:22:08.685Z,9.93
2022-12-09T09:24:35.802Z,11.73
2022-12-09T09:27:02.901Z,11.68
2022-12-09T09:29:30.080Z,10.02
2022-12-09T09:31:57.573Z,12.25
2022-12-09T09:34:26.943Z,10.75
2022-12-09T09:36:55.765Z,11.75
2022-12-09T09:39:23.242Z,11.10
2022-12-09T09:41:59.579Z,13.02
2022-12-09T09:44:43.427Z,12.73
2022-12-09T09:47:25.931Z,13.00
2022-12-09T09:50:20.649Z,12.98
2022-12-09T09:52:50.031Z,17.02
2022-12-09T09:55:30.588Z,12.77
2022-12-09T09:58:19.044Z,11.30
2022-12-09T10:00:55.762Z,12.40
2022-12-09T10:03:37.167Z,12.15
2022-12-09T10:06:22.854Z,10.73
2022-12-09T10:09:34.375Z,11.25
2022-12-09T10:12:19.985Z,10.45
2022-12-09T10:14:53.093Z,11.10
2022-12-09T10:17:29.204Z,9.70
2022-12-09T10:20:06.141Z,9.55
2022-12-09T10:22:56.715Z,11.45
2022-12-09T10:25:29.458Z,11.90
2022-12-09T10:28:19.477Z,11.35
2022-12-09T10:30:46.359Z,10.50
2022-12-09T10:33:15.829Z,12.00
2022-12-09T10:35:44.102Z,12.43
2022-12-09T10:38:13.332Z,11.73
2022-12-09T10:40:46.510Z,11.05
2022-12-09T10:43:35.236Z,10.32
2022-12-09T10:46:19.992Z,10.80
2022-12-09T10:48:53.085Z,12.02
2022-12-09T10:51:27.837Z,11.07
2022-12-09T10:53:55.012Z,9.85
2022-12-09T10:56:30.945Z,11.88
2022-12-09T10:59:22.575Z,11.07
2022-12-09T11:01:56.743Z,11.35
2022-12-09T11:04:26.844Z,12.00
2022-12-09T11:06:59.661Z,12.00
2022-12-09T11:09:38.703Z,11.25
2022-12-09T11:12:29.975Z,10.95
2022-12-09T11:15:00.614Z,12.90
2022-12-09T11:17:34.023Z,12.25
2022-12-09T11:20:07.973Z,12.95
2022-12-09T11:22:43.468Z,11.60
2022-12-09T11:25:13.444Z,11.38
2022-12-09T11:27:48.089Z,12.23
2022-12-09T11:30:15.831Z,13.55
2022-12-09T11:32:56.871Z,11.57
2022-12-09T11:35:32.282Z,11.93
2022-12-09T11:38:03.727Z,11.95
2022-12-09T11:40:32.610Z,13.30
2022-12-09T11:42:59.493Z,12.38
2022-12-09T11:45:33.622Z,12.82
2022-12-09T11:48:36.304Z,13.02
2022-12-09T11:51:02.686Z,11.77
2022-12-09T11:53:40.753Z,9.50
2022-12-09T11:56:21.050Z,10.40
2022-12-09T11:59:00.085Z,11.68
2022-12-09T12:01:38.890Z,13.13
2022-12-09T12:04:10.045Z,10.40
2022-12-09T12:06:53.483Z,10.52
2022-12-09T12:09:45.230Z,10.50
2022-12-09T12:12:17.759Z,11.52
2022-12-09T12:17:22.333Z,11.95
2022-12-09T12:19:51.574Z,12.18
2022-12-09T12:22:36.853Z,11.88
2022-12-09T12:25:33.977Z,13.13
2022-12-09T12:28:31.185Z,9.55
2022-12-09T12:31:19.946Z,12.18
2022-12-09T12:36:58.978Z,12.05
2022-12-09T12:39:44.075Z,12.10
2022-12-09T12:42:16.442Z,12.40
2022-12-09T12:45:10.296Z,13.75
2022-12-09T12:47:49.148Z,13.88
2022-12-09T12:50:33.369Z,14.52
2022-12-09T12:53:18.318Z,14.68
2022-12-09T12:56:15.829Z,16.25
2022-12-09T12:59:08.273Z,15.40
2022-12-09T13:01:57.639Z,17.38
2022-12-09T13:04:38.499Z,17.23
2022-12-09T13:07:30.815Z,16.30
2022-12-09T13:10:08.570Z,15.77
2022-12-09T13:12:56.974Z,16.65
2022-12-09T13:15:44.155Z,16.45
2022-12-09T13:18:22.035Z,18.48
2022-12-09T13:20:48.628Z,17.88
2022-12-09T13:23:43.035Z,20.13
2022-12-09T13:26:45.422Z,18.27
2022-12-09T13:30:10.464Z,16.58
2022-12-09T13:33:16.855Z,15.40
2022-12-09T13:36:13.585Z,17.83
2022-12-09T13:38:42.722Z,15.85
2022-12-09T13:41:27.636Z,15.38
2022-12-09T13:44:06.540Z,17.95
2022-12-09T13:46:34.059Z,16.17
2022-12-09T13:49:18.136Z,15.68
2022-12-09T13:51:48.460Z,16.58
2022-12-09T13:54:17.507Z,17.30
2022-12-09T13:56:47.894Z,17.95
2022-12-09T13:59:33.519Z,14.18
2022-12-09T14:02:11.051Z,16.33
2022-12-09T14:04:51.673Z,14.07
2022-12-09T14:07:42.781Z,12.60
2022-12-09T14:10:37.694Z,12.68
2022-12-09T14:13:35.552Z,14.75
2022-12-09T14:16:10.242Z,14.43
2022-12-09T14:18:39.873Z,14.75
2022-12-09T14:21:19.296Z,16.55
2022-12-09T14:24:08.050Z,18.67
2022-12-09T14:26:37.547Z,14.45
2022-12-09T14:29:04.648Z,17.23
2022-12-09T14:32:18.981Z,17.48
2022-12-09T14:34:49.093Z,18.77
2022-12-09T14:37:24.954Z,17.58
2022-12-09T14:39:59.141Z,17.52
2022-12-09T14:42:42.784Z,20.75
2022-12-09T14:45:22.002Z,20.65
2022-12-09T14:47:48.873Z,20.33
2022-12-09T14:50:16.911Z,19.02
2022-12-09T14:52:57.704Z,18.58
2022-12-09T14:55:26.509Z,18.42
2022-12-09T14:57:55.790Z,18.90
2022-12-09T15:00:28.491Z,17.63
2022-12-09T15:03:30.064Z,19.85
2022-12-09T15:06:01.504Z,19.17
2022-12-09T15:08:37.905Z,18.25
2022-12-09T15:11:21.605Z,19.25
2022-12-09T15:13:51.388Z,20.63
2022-12-09T15:16:22.405Z,21.35
2022-12-09T15:18:51.592Z,23.25
2022-12-09T15:21:25.657Z,19.63
2022-12-09T15:23:52.498Z,25.02
2022-12-09T15:26:27.389Z,20.25
2022-12-09T15:28:56.561Z,23.90
2022-12-09T15:31:28.495Z,20.85
2022-12-09T15:33:58.386Z,22.40
2022-12-09T15:36:34.593Z,21.33
2022-12-09T15:39:01.131Z,22.75
2022-12-09T15:41:52.134Z,22.45
2022-12-09T15:44:24.068Z,22.58
2022-12-09T15:46:53.824Z,21.15
2022-12-09T15:49:33.139Z,23.45
2022-12-09T15:52:02.761Z,19.33
2022-12-09T15:54:37.483Z,22.08
2022-12-09T15:57:07.285Z,23.88
2022-12-09T15:59:40.981Z,25.70
2022-12-09T16:02:11.886Z,22.73
2022-12-09T16:04:47.017Z,24.13
2022-12-09T16:07:18.391Z,25.50
2022-12-09T16:10:09.830Z,23.02
2022-12-09T16:12:37.740Z,24.90
2022-12-09T16:15:06.470Z,26.33
2022-12-09T16:17:50.278Z,26.33
2022-12-09T16:20:32.587Z,26.02
2022-12-09T16:23:01.496Z,26.75
2022-12-09T16:25:30.319Z,25.65
2022-12-09T16:28:00.275Z,31.60
2022-12-09T16:30:30.796Z,49.67
2022-12-09T16:32:59.461Z,29.10
2022-12-09T16:35:31.539Z,29.25
2022-12-09T16:37:58.175Z,27.67
2022-12-09T16:40:24.995Z,33.67
2022-12-09T16:42:54.056Z,31.38
2022-12-09T16:45:35.927Z,33.45
2022-12-09T16:48:03.347Z,28.42
2022-12-09T16:50:32.941Z,31.95
2022-12-09T16:53:00.224Z,31.35
2022-12-09T16:55:29.646Z,33.63
2022-12-09T16:57:57.603Z,35.28
2022-12-09T17:00:27.125Z,30.50
2022-12-09T17:03:10.751Z,36.33
2022-12-09T17:05:37.377Z,33.40
2022-12-09T17:08:04.282Z,31.23
2022-12-09T17:10:30.911Z,31.40
2022-12-09T17:12:57.670Z,34.35
2022-12-09T17:15:24.443Z,31.15
2022-12-09T17:17:51.102Z,30.92
2022-12-09T17:20:17.913Z,31.17
2022-12-09T17:22:44.566Z,34.22
2022-12-09T17:25:11.155Z,36.90
2022-12-09T17:27:38.296Z,30.80
2022-12-09T17:30:05.546Z,31.23
2022-12-09T17:32:32.243Z,29.63
2022-12-09T17:34:58.880Z,31.23
2022-12-09T17:37:25.481Z,33.13
2022-12-09T17:39:56.844Z,31.67
2022-12-09T17:42:26.894Z,28.23
2022-12-09T17:44:53.490Z,30.38
2022-12-09T17:47:20.153Z,28.33
2022-12-09T17:49:46.832Z,30.02
2022-12-09T17:52:14.258Z,30.98
2022-12-09T17:54:40.948Z,30.33
2022-12-09T17:57:07.739Z,29.85
2022-12-09T17:59:34.357Z,30.80
2022-12-09T18:02:03.596Z,28.05
2022-12-09T18:04:31.475Z,32.00
2022-12-09T18:06:58.514Z,28.88
2022-12-09T18:09:25.103Z,32.00
2022-12-09T18:11:51.958Z,28.90
2022-12-09T18:14:19.004Z,32.58
2022-12-09T18:16:49.351Z,28.73
2022-12-09T18:19:18.200Z,29.60
2022-12-09T18:21:45.084Z,33.20
2022-12-09T18:24:11.725Z,34.25
2022-12-09T18:26:42.045Z,28.73
2022-12-09T18:29:10.402Z,33.72
2022-12-09T18:31:37.327Z,29.27
2022-12-09T18:34:03.936Z,28.83
2022-12-09T18:36:31.218Z,27.30
2022-12-09T18:38:58.643Z,27.92
2022-12-09T18:41:29.174Z,31.27
2022-12-09T18:43:57.768Z,27.15
2022-12-09T18:46:34.177Z,22.60
2022-12-09T18:49:04.821Z,26.60
2022-12-09T18:51:32.773Z,26.80
2022-12-09T18:54:01.751Z,26.38
2022-12-09T18:56:29.228Z,24.40
2022-12-09T18:59:12.047Z,27.85
2022-12-09T19:01:41.733Z,29.27
2022-12-09T19:04:15.016Z,25.60
2022-12-09T19:06:44.140Z,28.58
2022-12-09T19:09:14.419Z,26.30
2022-12-09T19:11:42.421Z,28.02
2022-12-09T19:14:10.236Z,24.55
2022-12-09T19:16:37.730Z,26.92
2022-12-09T19:19:09.644Z,27.83
2022-12-09T19:24:03.545Z,27.70
2022-12-09T19:26:32.651Z,26.85
2022-12-09T19:29:02.142Z,23.33
2022-12-09T19:31:37.496Z,26.33
2022-12-09T19:34:12.036Z,26.92
2022-12-09T19:36:39.151Z,28.85
2022-12-09T19:39:08.352Z,27.60
2022-12-09T19:41:36.505Z,27.23
2022-12-09T19:44:04.889Z,28.25
2022-12-09T19:46:32.740Z,31.35
2022-12-09T19:48:59.839Z,25.88
2022-12-09T19:51:27.400Z,27.20
2022-12-09T19:53:56.238Z,26.05
2022-12-09T19:56:24.109Z,29.15
2022-12-09T19:58:52.028Z,28.67
2022-12-09T20:01:23.007Z,35.47
2022-12-09T20:03:52.596Z,29.05
2022-12-09T20:06:21.415Z,29.90
2022-12-09T20:08:48.478Z,30.20
2022-12-09T20:11:20.644Z,25.48
2022-12-09T20:13:48.101Z,30.48
2022-12-09T20:16:17.386Z,31.67
2022-12-09T20:18:45.466Z,31.00
2022-12-09T20:21:13.523Z,31.33
2022-12-09T20:23:41.851Z,27.83
2022-12-09T20:26:12.991Z,29.25
2022-12-09T20:28:41.050Z,34.40
2022-12-09T20:31:10.446Z,33.90
2022-12-09T20:33:37.735Z,29.77
2022-12-09T20:36:10.409Z,30.33
2022-12-09T20:38:37.924Z,29.38
2022-12-09T20:41:12.824Z,31.13
2022-12-09T20:43:43.747Z,29.42
2022-12-09T20:46:11.855Z,28.33
2022-12-09T20:48:40.063Z,35.58
2022-12-09T20:51:13.314Z,34.03
2022-12-09T20:53:41.539Z,31.13
2022-12-09T20:56:09.400Z,31.38
2022-12-09T20:58:38.441Z,29.70
2022-12-09T21:01:32.841Z,30.52
2022-12-09T21:04:01.043Z,32.28
2022-12-09T21:06:31.614Z,26.95
2022-12-09T21:09:07.872Z,27.02
2022-12-09T21:11:34.962Z,28.88
2022-12-09T21:14:04.027Z,31.52
2022-12-09T21:16:33.909Z,33.58
2022-12-09T21:19:05.276Z,25.58
2022-12-09T21:21:40.924Z,24.42
2022-12-09T21:24:11.708Z,27.13
2022-12-09T21:26:38.951Z,31.67
2022-12-09T21:29:05.885Z,26.60
2022-12-09T21:31:36.727Z,29.55
2022-12-09T21:34:05.407Z,28.92
2022-12-09T21:36:35.277Z,29.95
2022-12-09T21:39:02.796Z,28.27
2022-12-09T21:41:33.149Z,28.02
2022-12-09T21:44:00.407Z,28.05
2022-12-09T21:46:29.927Z,26.55
2022-12-09T21:49:03.028Z,28.85
2022-12-09T21:51:31.034Z,27.90
2022-12-09T21:53:57.741Z,27.08
2022-12-09T21:56:27.469Z,27.08
2022-12-09T21:58:56.363Z,27.77
2022-12-09T22:01:26.877Z,24.33
2022-12-09T22:03:54.881Z,24.95
2022-12-09T22:06:21.773Z,28.10
2022-12-09T22:08:48.547Z,26.48
2022-12-09T22:11:24.976Z,26.33
2022-12-09T22:13:52.872Z,25.15
2022-12-09T22:16:23.406Z,23.63
2022-12-09T22:18:53.539Z,25.33
2022-12-09T22:21:26.283Z,25.02
2022-12-09T22:23:54.940Z,22.90
2022-12-09T22:26:22.859Z,23.80
2022-12-09T22:28:49.794Z,24.02
2022-12-09T22:31:21.475Z,23.00
2022-12-09T22:33:50.036Z,23.95
2022-12-09T22:36:17.074Z,24.60
2022-12-09T22:38:44.154Z,26.33
2022-12-09T22:41:15.019Z,24.10
2022-12-09T22:43:42.473Z,25.17
2022-12-09T22:46:13.797Z,23.38
2022-12-09T22:48:41.570Z,24.75
2022-12-09T22:51:11.372Z,22.40
2022-12-09T22:53:38.381Z,23.33
2022-12-09T22:56:05.365Z,24.45
2022-12-09T22:58:32.141Z,24.45
2022-12-09T23:00:58.987Z,21.77
2022-12-09T23:03:25.753Z,20.63
2022-12-09T23:05:52.504Z,20.15
2022-12-09T23:08:19.182Z,20.20
2022-12-09T23:10:45.984Z,21.13
2022-12-09T23:13:12.651Z,19.48
2022-12-09T23:15:39.530Z,20.55
2022-12-09T23:18:06.252Z,20.63
2022-12-09T23:20:32.961Z,18.83
2022-12-09T23:22:59.755Z,18.65
2022-12-09T23:25:26.436Z,18.20
2022-12-09T23:27:53.121Z,18.35
2022-12-09T23:30:19.775Z,18.70
2022-12-09T23:32:46.410Z,18.75
2022-12-09T23:35:13.184Z,19.10
2022-12-09T23:37:39.838Z,19.38
2022-12-09T23:40:07.522Z,18.15
2022-12-09T23:42:34.405Z,17.98
2022-12-09T23:45:01.039Z,17.02
2022-12-09T23:47:28.007Z,18.63
2022-12-09T23:49:55.579Z,17.45
2022-12-09T23:52:22.306Z,15.20
2022-12-09T23:54:48.943Z,15.88
2022-12-09T23:57:15.602Z,15.27
2022-12-09T23:59:42.201Z,16.05
